Time;durP1;ratioP1;P1;durP2;ratioP2;P2;SDS_P1;SDS_P2;PMS_P1;PMS_P2;Temp;Humidity;BMP_temperature;BMP_pressure;BME280_temperature;BME280_humidity;BME280_pressure;Samples;Min_cycle;Max_cycle;Signal;HPM_P1;HPM_P2
2022/06/03 00:00:08;;;;;;;7.60;3.53;;;;;;;19.36;100.00;63997.34;4986198;28;20535;-77
2022/06/03 00:03:09;;;;;;;6.63;4.15;;;;;;;19.31;100.00;64002.44;5000127;28;20242;-77
2022/06/03 00:06:05;;;;;;;4.95;3.45;;;;;;;19.28;100.00;63994.66;5005215;28;20395;-76
2022/06/03 00:09:05;;;;;;;4.45;4.10;;;;;;;19.24;100.00;63992.53;5006269;28;20195;-76
2022/06/03 00:12:05;;;;;;;5.03;4.53;;;;;;;19.18;100.00;63979.06;5006904;28;20237;-76
2022/06/03 00:15:01;;;;;;;5.47;4.05;;;;;;;19.17;100.00;63985.75;5006434;28;20198;-76
2022/06/03 00:17:56;;;;;;;6.50;3.97;;;;;;;19.15;100.00;63983.16;5007548;28;20191;-76
2022/06/03 00:20:38;;;;;;;8.85;4.00;;;;;;;19.13;100.00;63976.44;5006065;28;20265;-77
2022/06/03 00:23:39;;;;;;;4.60;4.10;;;;;;;19.02;100.00;63970.13;4986534;28;20199;-77
2022/06/03 00:26:26;;;;;;;5.45;4.13;;;;;;;18.94;100.00;63963.84;4986833;28;20226;-77
2022/06/03 00:29:06;;;;;;;5.00;4.60;;;;;;;18.93;100.00;63963.31;4986059;28;20554;-77
2022/06/03 00:31:55;;;;;;;6.75;4.32;;;;;;;18.93;100.00;63955.56;4986645;28;20229;-77
2022/06/03 00:34:46;;;;;;;4.60;4.30;;;;;;;18.88;100.00;63955.53;4985459;28;20488;-78
2022/06/03 00:37:29;;;;;;;10.55;4.65;;;;;;;18.88;100.00;63955.53;4987322;28;20243;-77
2022/06/03 00:40:11;;;;;;;4.88;4.47;;;;;;;18.89;100.00;63956.03;4987563;28;20223;-77
2022/06/03 00:43:08;;;;;;;4.50;4.20;;;;;;;18.82;100.00;63946.16;5003152;28;20320;-77
2022/06/03 00:46:14;;;;;;;4.10;3.83;;;;;;;18.69;100.00;63932.63;4970901;28;20281;-79
2022/06/03 00:48:50;;;;;;;7.45;4.72;;;;;;;18.82;100.00;63948.75;4986124;28;20203;-78
2022/06/03 00:52:00;;;;;;;6.25;4.20;;;;;;;18.77;100.00;63943.53;4984800;28;20594;-78
2022/06/03 00:54:56;;;;;;;6.30;4.30;;;;;;;18.77;100.00;63943.53;4930271;28;20201;-77
2022/06/03 00:57:53;;;;;;;7.75;4.47;;;;;;;18.77;100.00;63938.91;5001018;28;20207;-77
2022/06/03 01:00:24;;;;;;;4.68;4.25;;;;;;;18.72;100.00;63935.75;5004649;28;20551;-77
2022/06/03 01:03:17;;;;;;;5.82;4.50;;;;;;;18.73;100.00;63936.78;4985715;28;20216;-77
2022/06/03 01:05:58;;;;;;;5.07;4.20;;;;;;;18.69;100.00;63933.13;4985859;28;20215;-77
2022/06/03 01:08:39;;;;;;;9.07;4.22;;;;;;;18.69;100.00;63932.63;5009482;28;20421;-77
2022/06/03 01:11:23;;;;;;;4.70;4.32;;;;;;;18.71;100.00;63932.63;5013065;28;20276;-77
2022/06/03 01:14:10;;;;;;;5.03;4.13;;;;;;;18.74;100.00;63937.84;5006052;28;20199;-78
2022/06/03 01:16:59;;;;;;;5.72;4.28;;;;;;;18.75;100.00;63936.28;5006407;28;20223;-77
2022/06/03 01:19:41;;;;;;;6.35;4.45;;;;;;;18.73;100.00;63936.78;5003592;28;20249;-78
2022/06/03 01:22:36;;;;;;;4.35;3.95;;;;;;;18.72;100.00;63936.28;5002878;28;20457;-77
2022/06/03 01:25:46;;;;;;;5.38;4.10;;;;;;;18.79;100.00;63945.63;5007873;28;20222;-77
2022/06/03 01:28:39;;;;;;;6.05;4.28;;;;;;;18.77;100.00;63944.06;5010149;28;20262;-77
2022/06/03 01:31:39;;;;;;;4.45;4.05;;;;;;;18.72;100.00;63933.69;4971922;28;20290;-78
2022/06/03 01:34:23;;;;;;;4.28;3.47;;;;;;;18.69;100.00;63933.13;5008106;28;20230;-76
2022/06/03 01:37:04;;;;;;;4.97;4.22;;;;;;;18.78;100.00;63942.00;5007434;28;20215;-78
2022/06/03 01:39:51;;;;;;;9.13;4.88;;;;;;;18.84;100.00;63945.69;5006766;28;20206;-77
2022/06/03 01:42:58;;;;;;;5.10;4.60;;;;;;;18.80;100.00;63942.03;4990005;28;20267;-77
2022/06/03 01:45:48;;;;;;;6.85;5.03;;;;;;;18.64;100.00;63927.91;4986811;28;20215;-77
2022/06/03 01:48:37;;;;;;;4.90;4.35;;;;;;;18.73;100.00;63939.38;4987451;28;20200;-77
2022/06/03 01:51:32;;;;;;;8.02;4.88;;;;;;;18.73;100.00;63939.38;4998496;28;20416;-77
2022/06/03 01:54:30;;;;;;;5.57;4.90;;;;;;;18.73;100.00;63939.88;4986845;28;20246;-77
2022/06/03 01:57:30;;;;;;;4.82;4.40;;;;;;;18.76;100.00;63947.66;4999168;28;20403;-78
2022/06/03 02:00:24;;;;;;;8.35;4.72;;;;;;;18.71;100.00;63930.06;5006508;28;20229;-78
2022/06/03 02:03:37;;;;;;;6.03;4.72;;;;;;;18.63;100.00;63928.94;5006770;28;20257;-77
2022/06/03 02:06:51;;;;;;;5.50;4.40;;;;;;;18.60;100.00;63923.78;4923651;29;20226;-78
2022/06/03 02:09:50;;;;;;;7.38;4.88;;;;;;;18.47;100.00;63912.78;5002518;28;20199;-78
2022/06/03 02:12:42;;;;;;;7.05;4.88;;;;;;;18.49;100.00;63907.13;5008758;28;20203;-77
2022/06/03 02:15:38;;;;;;;5.80;5.22;;;;;;;18.35;100.00;63900.78;4999560;28;20215;-77
2022/06/03 02:18:32;;;;;;;7.45;5.30;;;;;;;18.24;100.00;63883.66;4989670;28;20188;-77
2022/06/03 02:21:38;;;;;;;5.35;4.45;;;;;;;18.16;100.00;63875.84;4974362;28;20246;-78
2022/06/03 02:24:35;;;;;;;6.20;4.25;;;;;;;18.13;100.00;63877.34;4987944;28;20211;-78
2022/06/03 02:27:47;;;;;;;5.22;4.82;;;;;;;18.13;100.00;63869.63;4987398;28;20188;-78
2022/06/03 02:30:36;;;;;;;5.43;4.63;;;;;;;18.10;100.00;63869.56;4985798;28;20420;-78
2022/06/03 02:33:40;;;;;;;5.40;4.95;;;;;;;18.09;100.00;63871.13;5000254;28;20393;-78
2022/06/03 02:36:40;;;;;;;4.03;3.72;;;;;;;18.09;100.00;63868.00;5001523;28;20219;-79
2022/06/03 02:39:23;;;;;;;4.68;4.28;;;;;;;18.06;100.00;63867.47;5004323;28;20234;-78
2022/06/03 02:42:11;;;;;;;6.72;4.13;;;;;;;18.11;100.00;63872.69;5005125;28;20272;-78
2022/06/03 02:45:04;;;;;;;5.07;4.50;;;;;;;18.12;100.00;63871.16;5006194;28;20224;-78
2022/06/03 02:48:04;;;;;;;4.45;4.05;;;;;;;18.02;100.00;63858.66;5001409;28;20245;-78
2022/06/03 02:51:10;;;;;;;7.80;4.75;;;;;;;18.13;100.00;63877.88;5007125;28;20215;-78
2022/06/03 02:54:18;;;;;;;5.70;3.88;;;;;;;18.12;100.00;63869.09;4987971;28;20211;-78
2022/06/03 02:57:29;;;;;;;5.68;4.40;;;;;;;18.12;100.00;63876.31;4985881;28;20278;-78
2022/06/03 03:00:16;;;;;;;6.35;4.35;;;;;;;18.13;100.00;63874.75;4971220;28;20547;-79
2022/06/03 03:03:07;;;;;;;4.53;4.22;;;;;;;18.19;100.00;63884.13;4988941;28;20242;-78
2022/06/03 03:05:52;;;;;;;7.53;3.97;;;;;;;18.19;100.00;63883.59;5005029;28;20215;-78
2022/06/03 03:08:50;;;;;;;9.88;4.22;;;;;;;18.24;100.00;63886.22;5004582;28;20210;-78
2022/06/03 03:11:42;;;;;;;5.50;5.10;;;;;;;18.27;100.00;63889.34;4986278;28;20230;-78
2022/06/03 03:14:42;;;;;;;5.15;4.05;;;;;;;18.31;100.00;63896.63;4975208;28;20199;-79
2022/06/03 03:17:33;;;;;;;5.45;4.45;;;;;;;18.37;100.00;63897.19;4966424;29;20204;-78
2022/06/03 03:20:54;;;;;;;4.93;4.47;;;;;;;18.35;100.00;63897.69;4965755;29;20223;-78
2022/06/03 03:23:48;;;;;;;5.97;4.93;;;;;;;18.53;100.00;63916.47;4966407;28;20231;-78
2022/06/03 03:26:28;;;;;;;7.03;5.05;;;;;;;18.56;100.00;63921.66;4965760;29;20270;-79
2022/06/03 03:29:28;;;;;;;5.57;4.72;;;;;;;18.64;100.00;63927.91;4970332;29;20220;-78
2022/06/03 03:32:26;;;;;;;5.03;4.63;;;;;;;18.69;100.00;63933.13;4970618;29;20216;-78
2022/06/03 03:35:28;;;;;;;6.78;5.05;;;;;;;18.85;100.00;63949.28;4943095;28;20228;-79
2022/06/03 03:38:32;;;;;;;7.97;5.15;;;;;;;18.90;100.00;63952.44;4971596;28;20219;-78
2022/06/03 03:41:30;;;;;;;6.85;5.78;;;;;;;19.01;100.00;63963.91;4966704;28;20220;-79
2022/06/03 03:44:16;;;;;;;5.97;5.10;;;;;;;19.12;100.00;63972.78;4977908;28;20259;-79
2022/06/03 03:47:18;;;;;;;8.57;4.60;;;;;;;19.26;100.00;63989.44;4968346;28;20220;-78
2022/06/03 03:50:14;;;;;;;8.75;4.30;;;;;;;19.44;100.00;64011.38;4966408;29;20243;-78
2022/06/03 03:53:29;;;;;;;4.68;4.13;;;;;;;19.59;100.00;64026.47;4965494;28;20210;-78
2022/06/03 03:56:44;;;;;;;7.57;3.95;;;;;;;19.76;100.00;64046.28;4939115;29;20234;-78
2022/06/03 03:59:55;;;;;;;8.45;4.45;;;;;;;19.92;100.00;64063.47;4965325;28;20219;-78
2022/06/03 04:03:00;;;;;;;6.78;4.50;;;;;;;20.08;100.00;64074.50;4946732;29;20242;-78
2022/06/03 04:06:01;;;;;;;5.65;4.68;;;;;;;20.22;100.00;64089.13;4965333;28;20234;-78
2022/06/03 04:09:02;;;;;;;4.38;3.97;;;;;;;20.26;100.00;64095.88;4977736;28;20308;-78
2022/06/03 04:12:03;;;;;;;5.00;4.57;;;;;;;20.31;100.00;64099.03;5004090;28;20225;-78
2022/06/03 04:15:21;;;;;;;9.52;5.43;;;;;;;20.41;100.00;64114.13;4992646;28;20202;-78
2022/06/03 04:18:39;;;;;;;6.40;4.60;;;;;;;20.47;100.00;64115.19;4984551;28;20247;-79
2022/06/03 04:21:41;;;;;;;5.30;4.78;;;;;;;20.58;100.00;64129.81;4984540;28;20223;-79
2022/06/03 04:24:32;;;;;;;5.38;4.60;;;;;;;20.44;100.00;64117.25;4997204;28;20511;-79
2022/06/03 04:27:31;;;;;;;5.32;4.30;;;;;;;20.32;100.00;64096.97;4992241;28;20230;-79
2022/06/03 04:30:50;;;;;;;5.90;5.30;;;;;;;20.25;100.00;64094.84;4994077;28;20557;-79
2022/06/03 04:33:52;;;;;;;8.20;4.90;;;;;;;20.21;100.00;64088.59;5000800;28;20413;-78
2022/06/03 04:37:00;;;;;;;9.18;5.80;;;;;;;20.32;100.00;64102.66;4994273;28;20245;-79
2022/06/03 04:40:18;;;;;;;6.55;5.30;;;;;;;20.31;100.00;64098.50;5002999;28;20427;-78
2022/06/03 04:43:18;;;;;;;9.73;6.20;;;;;;;20.60;100.00;64133.97;4963611;28;20234;-79
2022/06/03 04:46:28;;;;;;;8.70;6.50;;;;;;;20.73;100.00;64141.81;4989813;28;20275;-78
2022/06/03 04:49:33;;;;;;;18.55;7.38;;;;;;;20.79;100.00;64153.78;4974386;28;20463;-78
2022/06/03 04:52:45;;;;;;;12.30;6.13;;;;;;;20.73;100.00;64147.00;5004471;28;20198;-79
2022/06/03 04:55:48;;;;;;;8.63;6.80;;;;;;;20.79;100.00;64151.19;5003871;28;20530;-77
2022/06/03 04:59:03;;;;;;;7.93;6.75;;;;;;;21.08;100.00;64183.56;5007108;28;20198;-77
2022/06/03 05:02:11;;;;;;;7.28;6.05;;;;;;;21.20;100.00;64193.50;4947347;29;20465;-78
2022/06/03 05:05:10;;;;;;;8.02;6.72;;;;;;;21.32;100.00;64208.63;4942538;29;20244;-79
2022/06/03 05:08:09;;;;;;;10.32;6.18;;;;;;;21.40;100.00;64214.91;4990557;28;20203;-78
2022/06/03 05:11:10;;;;;;;7.35;6.15;;;;;;;21.30;100.00;64204.47;4988805;28;20231;-79
2022/06/03 05:14:15;;;;;;;6.13;5.35;;;;;;;21.22;100.00;64196.13;4968357;28;20195;-76
2022/06/03 05:17:36;;;;;;;8.27;5.75;;;;;;;21.24;100.00;64197.69;5007062;28;20515;-77
2022/06/03 05:20:38;;;;;;;9.02;6.30;;;;;;;20.97;100.00;64172.56;4908833;29;20446;-76
2022/06/03 05:23:45;;;;;;;9.20;7.68;;;;;;;21.03;100.00;64173.69;4908698;29;20226;-78
2022/06/03 05:26:49;;;;;;;10.73;7.28;;;;;;;21.12;100.00;64187.75;4925821;29;20237;-77
2022/06/03 05:30:02;;;;;;;11.50;7.75;;;;;;;21.18;100.00;64191.41;4965127;28;20222;-77
2022/06/03 05:33:01;;;;;;;19.83;8.10;;;;;;;21.46;100.00;64225.84;4987986;28;20191;-76
2022/06/03 05:35:56;;;;;;;14.80;8.82;;;;;;;21.58;100.00;64233.19;4990000;28;20298;-78
2022/06/03 05:38:56;;;;;;;13.52;7.40;;;;;;;21.27;100.00;64203.94;4993205;28;20198;-78
2022/06/03 05:44:49;;;;;;;12.50;7.50;;;;;;;21.24;100.00;64198.22;5010791;28;20221;-78
2022/06/03 05:47:20;;;;;;;18.13;8.27;;;;;;;21.40;100.00;64211.78;5006336;28;20213;-78
2022/06/03 05:49:54;;;;;;;12.82;7.07;;;;;;;21.52;100.00;64226.91;5005403;28;20355;-78
2022/06/03 05:52:39;;;;;;;11.23;7.18;;;;;;;21.62;100.00;64237.91;5006028;28;20183;-78
2022/06/03 05:55:17;;;;;;;9.43;7.22;;;;;;;21.52;99.17;64222.25;5002153;28;20224;-77
2022/06/03 05:57:53;;;;;;;8.15;6.75;;;;;;;21.82;98.43;64258.28;4996225;28;20190;-78
2022/06/03 06:00:48;;;;;;;11.00;7.45;;;;;;;21.90;97.43;64269.25;5010425;28;20573;-77
2022/06/03 06:03:27;;;;;;;11.30;6.45;;;;;;;21.98;97.33;64271.91;4989128;28;20294;-78
2022/06/03 06:06:08;;;;;;;9.98;7.32;;;;;;;21.90;97.29;64268.72;5009196;28;20226;-77
2022/06/03 06:08:50;;;;;;;24.02;8.77;;;;;;;22.07;98.70;64287.00;5004587;28;20225;-77
2022/06/03 06:11:27;;;;;;;17.02;7.03;;;;;;;22.07;96.91;64281.81;4989507;28;20226;-77
2022/06/03 06:14:21;;;;;;;6.88;5.55;;;;;;;22.32;94.82;64310.03;4980886;28;20223;-77
2022/06/03 06:16:49;;;;;;;14.02;6.03;;;;;;;22.29;94.59;64304.28;4974469;28;20465;-79
2022/06/03 06:19:29;;;;;;;8.88;5.80;;;;;;;22.33;93.23;64308.47;4974365;28;20410;-77
2022/06/03 06:22:09;;;;;;;8.02;5.53;;;;;;;22.33;91.27;64313.66;4979304;28;20226;-78
2022/06/03 06:24:57;;;;;;;9.95;6.32;;;;;;;22.51;92.01;64332.47;4968797;28;20397;-77
2022/06/03 06:28:01;;;;;;;8.48;6.25;;;;;;;22.66;90.47;64342.97;4966452;29;20192;-77
2022/06/03 06:30:51;;;;;;;7.88;5.80;;;;;;;22.65;93.70;64352.88;4966430;29;20220;-76
2022/06/03 06:34:01;;;;;;;9.88;6.10;;;;;;;22.76;92.02;64350.84;4966299;29;20524;-76
2022/06/03 06:37:02;;;;;;;9.70;5.78;;;;;;;22.86;91.21;64371.69;4966284;29;20223;-75
2022/06/03 06:39:47;;;;;;;11.13;6.05;;;;;;;22.86;89.95;64363.91;4966673;28;20203;-78
2022/06/03 06:42:26;;;;;;;10.80;6.18;;;;;;;23.01;88.33;64379.59;4966174;29;20192;-76
2022/06/03 06:45:06;;;;;;;7.97;5.70;;;;;;;23.12;87.35;64393.69;4967031;29;20543;-76
2022/06/03 06:47:40;;;;;;;7.18;5.13;;;;;;;23.14;88.32;64393.19;4966065;29;20235;-77
2022/06/03 06:50:19;;;;;;;6.90;5.40;;;;;;;23.48;83.71;64431.38;4966542;29;20247;-78
2022/06/03 06:52:59;;;;;;;7.90;4.95;;;;;;;23.70;80.81;64454.41;4965837;29;20477;-78
2022/06/03 06:55:38;;;;;;;5.45;5.05;;;;;;;23.92;78.22;64479.47;4965702;29;20220;-77
2022/06/03 06:58:20;;;;;;;6.95;5.35;;;;;;;23.67;79.85;64448.66;4965579;29;20239;-76
2022/06/03 07:00:50;;;;;;;7.15;5.20;;;;;;;23.66;79.14;64447.09;4965649;29;20254;-76
2022/06/03 07:03:26;;;;;;;8.32;5.10;;;;;;;23.95;78.03;64480.53;4965449;29;20536;-77
2022/06/03 07:05:59;;;;;;;4.13;3.72;;;;;;;23.70;73.71;64451.25;4965926;29;20224;-78
2022/06/03 07:08:29;;;;;;;8.68;4.03;;;;;;;23.71;73.42;64458.03;4965759;29;20214;-77
2022/06/03 07:11:05;;;;;;;9.10;3.92;;;;;;;23.83;72.91;64467.47;4979802;28;20227;-77
2022/06/03 07:13:42;;;;;;;5.00;4.60;;;;;;;24.16;72.02;64504.13;4989155;28;20423;-76
2022/06/03 07:16:13;;;;;;;6.55;4.60;;;;;;;24.32;67.40;64516.16;5004021;28;20218;-77
2022/06/03 07:21:42;;;;;;;4.88;4.50;;;;;;;24.51;67.05;64541.28;5004267;28;20278;-76
2022/06/03 07:24:14;;;;;;;4.32;3.92;;;;;;;24.33;69.60;64519.84;5004270;28;20269;-76
2022/06/03 07:26:46;;;;;;;6.75;4.40;;;;;;;24.58;69.92;64551.22;5004273;28;20511;-77
2022/06/03 07:29:19;;;;;;;8.50;4.63;;;;;;;24.58;69.06;64545.47;5004291;28;20423;-76
2022/06/03 07:31:51;;;;;;;9.10;4.28;;;;;;;24.55;68.92;64542.88;5003891;28;20274;-77
2022/06/03 07:34:24;;;;;;;6.38;4.22;;;;;;;24.56;64.26;64543.91;5003813;28;20466;-76
2022/06/03 07:36:57;;;;;;;6.78;3.70;;;;;;;24.59;65.31;64549.66;5003677;28;20602;-77
2022/06/03 07:39:43;;;;;;;7.50;4.10;;;;;;;24.44;64.07;64528.72;5004034;28;20389;-77
2022/06/03 07:42:17;;;;;;;8.73;4.30;;;;;;;24.72;65.80;64562.75;5003667;28;20197;-76
2022/06/03 07:44:55;;;;;;;6.72;4.30;;;;;;;24.51;65.67;64538.66;5003976;28;20269;-77
2022/06/03 07:47:24;;;;;;;8.43;4.22;;;;;;;24.90;63.31;64579.53;5003995;28;20218;-77
2022/06/03 07:49:56;;;;;;;7.40;4.78;;;;;;;25.24;63.21;64617.22;5003391;28;20199;-76
2022/06/03 07:52:33;;;;;;;7.55;4.20;;;;;;;25.51;63.77;64642.94;5003495;28;20422;-77
2022/06/03 07:55:00;;;;;;;5.10;4.20;;;;;;;25.43;61.57;64634.03;5003650;28;20440;-76
2022/06/03 07:57:29;;;;;;;7.35;4.40;;;;;;;25.39;61.55;64630.34;5003797;28;20202;-77
2022/06/03 08:00:00;;;;;;;5.57;4.50;;;;;;;25.44;61.07;64638.19;5004107;28;20219;-77
2022/06/03 08:02:28;;;;;;;4.93;4.43;;;;;;;25.59;60.20;64651.31;5003971;28;20439;-76
2022/06/03 08:05:05;;;;;;;6.35;5.15;;;;;;;25.37;61.94;64633.47;4991168;28;20231;-76
2022/06/03 08:13:06;;;;;;;6.82;4.63;;;;;;;25.70;59.88;64662.84;4972749;28;20214;-77
2022/06/03 08:15:36;;;;;;;5.82;5.25;;;;;;;25.43;62.51;64636.63;4983153;28;20286;-78
2022/06/03 08:18:06;;;;;;;5.05;4.38;;;;;;;25.70;59.13;64668.06;4983734;28;20242;-77
2022/06/03 08:20:41;;;;;;;7.43;4.97;;;;;;;25.84;59.58;64680.13;4984024;28;20278;-77
2022/06/03 08:23:09;;;;;;;7.28;5.13;;;;;;;25.93;60.08;64686.41;4978420;28;20249;-77
2022/06/03 08:25:41;;;;;;;8.40;5.07;;;;;;;26.44;58.46;64739.91;4989100;28;20220;-77
2022/06/03 08:28:12;;;;;;;6.75;4.50;;;;;;;26.53;55.33;64757.19;4980606;28;20196;-77
2022/06/03 08:30:42;;;;;;;7.00;4.50;;;;;;;26.20;55.13;64714.75;4988411;28;20219;-78
2022/06/03 08:33:13;;;;;;;6.72;4.47;;;;;;;26.07;55.94;64703.72;4985285;28;20223;-79
2022/06/03 08:35:44;;;;;;;9.05;4.72;;;;;;;26.12;57.37;64708.97;4969401;29;20267;-77
2022/06/03 08:38:15;;;;;;;7.60;4.10;;;;;;;26.57;56.75;64756.16;4969608;28;20243;-78
2022/06/03 08:40:49;;;;;;;10.57;4.60;;;;;;;27.26;56.93;64828.56;4985258;28;20219;-78
2022/06/03 08:43:27;;;;;;;5.45;4.90;;;;;;;27.95;55.10;64897.84;4987778;28;20520;-78
2022/06/03 08:46:00;;;;;;;4.68;3.85;;;;;;;28.35;53.15;64936.72;4990886;28;20255;-79
2022/06/03 08:48:33;;;;;;;5.78;4.60;;;;;;;28.55;49.01;64962.44;4988504;28;20205;-80
2022/06/03 08:51:04;;;;;;;16.33;5.10;;;;;;;27.67;51.43;64870.53;4988914;28;20215;-78
2022/06/03 08:53:40;;;;;;;10.18;4.15;;;;;;;27.87;52.47;64892.03;4989713;28;20203;-79
2022/06/03 08:56:09;;;;;;;6.43;4.50;;;;;;;27.91;52.21;64898.88;4990561;28;20218;-78
2022/06/03 08:58:44;;;;;;;9.05;5.03;;;;;;;27.84;52.59;64888.38;4988563;28;20199;-79
2022/06/03 09:01:20;;;;;;;8.85;4.88;;;;;;;27.90;52.72;64894.69;4980304;28;20238;-79
2022/06/03 09:03:54;;;;;;;9.18;5.20;;;;;;;28.05;52.73;64908.34;4968063;29;20523;-78
2022/06/03 09:06:52;;;;;;;5.32;4.43;;;;;;;28.87;51.39;64993.44;4968070;29;20266;-78
2022/06/03 09:09:30;;;;;;;5.00;4.50;;;;;;;28.92;49.49;64998.69;4968220;28;20553;-78
2022/06/03 09:12:08;;;;;;;6.25;5.13;;;;;;;28.61;49.72;64966.13;4980127;28;20511;-78
2022/06/03 09:14:35;;;;;;;5.57;4.57;;;;;;;28.44;49.70;64951.38;4980107;28;20208;-78
2022/06/03 09:17:14;;;;;;;9.38;4.95;;;;;;;28.35;49.52;64941.94;4990418;28;20217;-77
2022/06/03 09:19:45;;;;;;;5.82;5.15;;;;;;;27.98;50.63;64903.63;4992956;28;20247;-78
2022/06/03 09:22:17;;;;;;;8.98;5.30;;;;;;;26.62;55.38;64755.63;4968428;29;20192;-78
2022/06/03 09:24:45;;;;;;;6.72;5.25;;;;;;;26.06;55.90;64705.81;4972499;28;20291;-79
2022/06/03 09:27:16;;;;;;;10.63;4.70;;;;;;;25.78;58.11;64671.22;4969207;28;20211;-77
2022/06/03 09:29:48;;;;;;;5.55;5.00;;;;;;;25.57;59.23;64648.69;4970832;28;20210;-78
2022/06/03 09:32:19;;;;;;;4.97;4.57;;;;;;;25.79;59.37;64674.88;4983352;28;20371;-78
2022/06/03 09:34:49;;;;;;;10.40;5.40;;;;;;;26.16;58.55;64713.16;4986921;28;20203;-79
2022/06/03 09:37:19;;;;;;;6.75;4.43;;;;;;;26.67;57.36;64763.50;4981666;28;20203;-77
2022/06/03 09:39:50;;;;;;;6.43;4.88;;;;;;;26.95;57.23;64792.88;4972955;28;20377;-78
2022/06/03 09:42:19;;;;;;;7.80;4.95;;;;;;;26.58;56.75;64754.06;4972673;28;20492;-78
2022/06/03 09:44:48;;;;;;;9.48;5.15;;;;;;;26.78;55.57;64775.59;4986427;28;20247;-78
2022/06/03 09:47:19;;;;;;;5.18;4.55;;;;;;;27.31;54.59;64833.28;4986943;28;20200;-78
2022/06/03 09:49:49;;;;;;;5.75;4.93;;;;;;;27.39;55.51;64841.69;4986518;28;20238;-79
2022/06/03 09:52:19;;;;;;;5.10;4.75;;;;;;;26.95;57.62;64792.88;4982314;28;20199;-79
2022/06/03 09:54:47;;;;;;;8.57;5.78;;;;;;;26.29;58.74;64726.25;4984117;28;20210;-78
2022/06/03 09:57:21;;;;;;;6.95;5.03;;;;;;;26.03;60.55;64699.53;4975340;28;20243;-77
2022/06/03 09:59:53;;;;;;;7.57;5.13;;;;;;;25.74;61.67;64666.50;4985355;28;20196;-78
2022/06/03 10:02:22;;;;;;;10.50;5.15;;;;;;;25.62;61.96;64657.06;4980912;28;20199;-77
2022/06/03 10:04:49;;;;;;;5.28;4.85;;;;;;;25.55;61.27;64646.59;4975811;28;20238;-77
2022/06/03 10:07:16;;;;;;;5.60;5.00;;;;;;;25.54;60.67;64646.06;4986323;28;20230;-77
2022/06/03 10:12:52;;;;;;;5.30;4.75;;;;;;;26.02;57.05;64696.38;4986669;28;20199;-78
2022/06/03 10:15:41;;;;;;;10.50;4.47;;;;;;;26.19;56.34;64714.22;4986386;28;20243;-77
2022/06/03 10:18:15;;;;;;;7.50;4.80;;;;;;;25.72;59.01;64670.16;4985703;28;20288;-79
2022/06/03 10:20:43;;;;;;;4.95;3.90;;;;;;;25.58;58.27;64652.34;4984454;28;20253;-78
2022/06/03 10:23:11;;;;;;;7.57;4.88;;;;;;;25.64;57.91;64659.16;4986580;28;20238;-77
2022/06/03 10:25:38;;;;;;;6.28;4.32;;;;;;;25.54;57.35;64648.66;4984651;28;20267;-78
2022/06/03 10:28:05;;;;;;;5.88;5.25;;;;;;;25.51;57.39;64647.63;4973964;28;20204;-78
2022/06/03 10:30:34;;;;;;;5.88;5.30;;;;;;;25.99;57.73;64692.69;4984166;28;20291;-78
2022/06/03 10:33:01;;;;;;;5.82;4.78;;;;;;;26.30;56.56;64730.44;4971376;28;20200;-77
2022/06/03 10:35:34;;;;;;;6.93;4.70;;;;;;;26.94;52.87;64794.44;4966546;28;20476;-78
2022/06/03 10:38:03;;;;;;;4.95;4.15;;;;;;;26.99;54.61;64802.31;4965951;28;20390;-77
2022/06/03 10:40:32;;;;;;;4.88;4.13;;;;;;;26.95;52.49;64792.88;4966410;28;20220;-76
2022/06/03 10:43:01;;;;;;;6.10;4.38;;;;;;;27.19;51.94;64818.06;4966426;28;20440;-77
2022/06/03 10:45:30;;;;;;;4.50;4.10;;;;;;;27.02;51.21;64800.75;4980100;28;20227;-78
2022/06/03 10:47:57;;;;;;;6.10;4.25;;;;;;;26.93;51.97;64793.41;4984980;28;20247;-78
2022/06/03 10:50:33;;;;;;;5.65;4.18;;;;;;;27.18;50.91;64824.88;4987319;28;20382;-77
2022/06/03 11:01:32;;;;;;;6.95;4.78;;;;;;;26.93;53.28;64788.16;4985694;28;20222;-77
2022/06/03 11:04:00;;;;;;;5.88;4.28;;;;;;;26.76;54.10;64770.88;4985406;28;20238;-77
2022/06/03 11:06:35;;;;;;;5.15;4.38;;;;;;;27.10;51.73;64814.38;4982133;28;20226;-77
2022/06/03 11:09:05;;;;;;;9.45;4.53;;;;;;;27.02;49.98;64800.75;4965707;29;20219;-78
2022/06/03 11:11:43;;;;;;;6.25;4.88;;;;;;;26.52;52.75;64750.91;4966320;29;20259;-78
2022/06/03 11:14:34;;;;;;;5.20;4.72;;;;;;;26.50;52.67;64746.19;4983992;28;20282;-78
2022/06/03 11:17:06;;;;;;;6.18;5.65;;;;;;;26.61;52.20;64752.50;4980540;28;20199;-77
2022/06/03 11:19:35;;;;;;;4.70;4.32;;;;;;;26.74;51.38;64768.25;4984414;28;20202;-78
2022/06/03 11:22:16;;;;;;;4.85;4.47;;;;;;;27.30;50.72;64832.75;4980925;28;20195;-78
2022/06/03 11:24:50;;;;;;;5.13;4.65;;;;;;;27.69;48.66;64870.56;4982833;28;20523;-77
2022/06/03 11:27:21;;;;;;;9.00;4.40;;;;;;;27.96;48.87;64898.91;4984480;28;20206;-78
2022/06/03 11:29:50;;;;;;;6.35;4.38;;;;;;;28.19;47.41;64923.06;4981826;28;20207;-78
2022/06/03 11:32:19;;;;;;;5.55;4.25;;;;;;;27.73;48.31;64876.84;4981472;28;20492;-78
2022/06/03 11:34:52;;;;;;;5.07;4.63;;;;;;;27.92;46.99;64897.31;4983278;28;20199;-77
2022/06/03 11:37:26;;;;;;;7.72;4.22;;;;;;;28.21;47.60;64924.63;4982472;28;20191;-77
2022/06/03 11:40:01;;;;;;;6.78;4.43;;;;;;;28.56;46.90;64955.63;4982577;28;20215;-78
2022/06/03 11:42:35;;;;;;;4.93;3.95;;;;;;;28.54;44.52;64956.16;4983606;28;20195;-77
2022/06/03 11:45:09;;;;;;;4.57;4.28;;;;;;;28.88;44.19;64992.38;4982653;28;20286;-77
2022/06/03 11:47:40;;;;;;;5.82;4.07;;;;;;;28.92;43.49;64999.22;4983103;28;20202;-78
2022/06/03 11:50:10;;;;;;;5.10;4.55;;;;;;;29.20;42.63;65028.13;4983268;28;20554;-78
2022/06/03 11:52:39;;;;;;;6.90;4.60;;;;;;;29.41;42.26;65050.16;4982650;28;20214;-77
2022/06/03 11:55:06;;;;;;;4.68;4.13;;;;;;;29.36;41.40;65048.06;4982018;28;20219;-78
2022/06/03 11:57:35;;;;;;;5.53;4.20;;;;;;;29.35;41.50;65046.50;4986929;28;20195;-77
2022/06/03 12:00:06;;;;;;;3.65;3.45;;;;;;;29.48;41.99;65060.69;4983791;28;20237;-78
2022/06/03 12:02:37;;;;;;;9.90;4.35;;;;;;;29.39;42.73;65048.06;4986343;28;20187;-78
2022/06/03 12:05:09;;;;;;;10.70;4.43;;;;;;;29.16;43.08;65023.91;4984157;28;20550;-78
2022/06/03 12:07:43;;;;;;;6.03;4.50;;;;;;;29.30;41.58;65038.63;4979877;28;20191;-78
2022/06/03 12:10:16;;;;;;;8.13;4.43;;;;;;;29.91;41.32;65100.13;4982462;28;20230;-78
2022/06/03 12:15:43;;;;;;;4.57;4.07;;;;;;;31.28;38.50;65243.69;4984158;28;20270;-79
2022/06/03 12:18:38;;;;;;;6.28;4.57;;;;;;;31.48;37.12;65270.03;4983614;28;20361;-78
2022/06/03 12:21:07;;;;;;;5.97;4.43;;;;;;;30.54;39.44;65171.09;4982646;28;20219;-78
2022/06/03 12:23:54;;;;;;;5.25;4.82;;;;;;;31.04;38.56;65223.72;4980938;28;20202;-78
2022/06/03 12:26:26;;;;;;;4.50;4.10;;;;;;;31.77;36.70;65296.88;4982010;28;20215;-78
2022/06/03 12:28:57;;;;;;;3.65;3.38;;;;;;;31.66;36.83;65286.34;4983549;28;20226;-78
2022/06/03 12:31:38;;;;;;;8.13;4.32;;;;;;;31.37;36.95;65257.94;4982611;28;20215;-78
2022/06/03 12:34:20;;;;;;;9.65;4.68;;;;;;;30.27;39.45;65142.72;4982758;28;20187;-79
2022/06/03 12:36:52;;;;;;;4.35;4.05;;;;;;;29.20;42.29;65028.63;4982210;28;20219;-79
2022/06/03 12:39:27;;;;;;;5.57;3.92;;;;;;;28.48;41.57;64955.59;4980542;28;20203;-80
2022/06/03 12:42:03;;;;;;;4.20;3.85;;;;;;;28.50;41.44;64955.06;4983154;28;20215;-78
2022/06/03 12:44:50;;;;;;;5.30;3.97;;;;;;;28.55;42.12;64959.81;4982805;28;20230;-78
2022/06/03 12:47:26;;;;;;;9.25;4.45;;;;;;;28.03;44.73;64908.88;4965031;28;20200;-78
2022/06/03 12:49:54;;;;;;;6.22;4.00;;;;;;;27.77;44.75;64884.19;4978271;28;20582;-79
2022/06/03 12:52:44;;;;;;;4.63;3.72;;;;;;;27.64;44.65;64867.38;4982652;28;20203;-78
2022/06/03 12:55:23;;;;;;;4.55;4.22;;;;;;;27.56;44.67;64859.50;4982590;28;20215;-78
2022/06/03 12:57:54;;;;;;;4.38;4.07;;;;;;;27.76;43.54;64877.38;4984134;28;20508;-78
2022/06/03 13:00:28;;;;;;;10.90;4.43;;;;;;;27.96;43.64;64901.53;4984601;28;20299;-78
2022/06/03 13:02:57;;;;;;;4.95;4.00;;;;;;;27.80;43.42;64882.09;4984349;28;20196;-78
2022/06/03 13:05:43;;;;;;;6.25;4.03;;;;;;;27.47;43.71;64846.94;4981355;28;20231;-79
2022/06/03 13:08:12;;;;;;;5.88;4.28;;;;;;;27.47;44.18;64852.16;4983482;28;20532;-78
2022/06/03 13:11:00;;;;;;;4.70;4.30;;;;;;;27.36;44.52;64835.38;4977265;28;20231;-79
2022/06/03 13:13:50;;;;;;;8.20;3.65;;;;;;;27.62;43.11;64863.19;4977976;28;20247;-78